Vientiane, Laos
Current Conditions -  °F | °C
As of 10:30 AM on Saturday 25 Oct 2014 (Local Time) from VLVT Reporting Station
Few Clouds Few Clouds  
Wind Chill: 82°   Ceiling: Unl
Heat Index: 87°   Visibility: 4mi
Dew Point: 72°   Wind: 2mph
Humidity: 70%   Direction: 360°N
Pressure: 29.94"   Gusts: NA
Location:  17.97°N, 102.61°E
Report Text: VLVT 250330Z 36002KT 7000 FEW020 28/22 Q1014 NOSIG
Loading
Personal Weather Stations






























Interactive Weather Map
Tropical Storm Tracking
New forecast layout! Learn more

10-Day Weather Forecast

Advertisements
Track Severe Weather on mobile